createdAt,value
2023-03-16T00:00:09.610Z,79.66
2023-03-16T00:02:35.992Z,79.44
2023-03-16T00:05:02.366Z,79.70
2023-03-16T00:07:29.136Z,79.39
2023-03-16T00:09:55.519Z,79.40
2023-03-16T00:12:22.638Z,79.41
2023-03-16T00:14:49.531Z,79.46
2023-03-16T00:17:20.003Z,79.63
2023-03-16T00:19:48.248Z,79.34
2023-03-16T00:22:17.526Z,79.34
2023-03-16T00:24:43.933Z,79.42
2023-03-16T00:27:14.671Z,79.42
2023-03-16T00:29:47.138Z,79.54
2023-03-16T00:32:19.068Z,79.21
2023-03-16T00:34:47.024Z,79.30
2023-03-16T00:37:16.672Z,79.19
2023-03-16T00:39:44.541Z,79.03
2023-03-16T00:42:12.095Z,79.28
2023-03-16T00:44:38.938Z,79.11
2023-03-16T00:47:06.459Z,79.14
2023-03-16T00:49:34.818Z,79.48
2023-03-16T00:52:05.400Z,78.83
2023-03-16T00:54:35.162Z,79.23
2023-03-16T00:57:02.500Z,79.20
2023-03-16T00:59:30.422Z,79.03
2023-03-16T01:01:56.845Z,79.21
2023-03-16T01:04:23.214Z,79.24
2023-03-16T01:06:49.779Z,79.27
2023-03-16T01:09:16.162Z,79.27
2023-03-16T01:11:43.114Z,79.72
2023-03-16T01:14:10.629Z,79.29
2023-03-16T01:16:37.550Z,79.43
2023-03-16T01:19:04.252Z,79.28
2023-03-16T01:21:32.449Z,79.71
2023-03-16T01:23:58.956Z,79.57
2023-03-16T01:26:25.394Z,79.45
2023-03-16T01:28:51.818Z,79.51
2023-03-16T01:31:18.355Z,79.66
2023-03-16T01:33:44.809Z,79.47
2023-03-16T01:36:14.194Z,79.51
2023-03-16T01:38:41.312Z,79.88
2023-03-16T01:41:08.484Z,79.73
2023-03-16T01:43:37.531Z,79.51
2023-03-16T01:46:07.078Z,79.38
2023-03-16T01:48:42.454Z,79.22
2023-03-16T01:51:21.111Z,79.39
2023-03-16T01:53:53.034Z,79.67
2023-03-16T01:56:25.652Z,79.73
2023-03-16T01:58:58.639Z,80.12
2023-03-16T02:01:27.303Z,80.03
2023-03-16T02:04:06.510Z,79.89
2023-03-16T02:06:34.464Z,79.89
2023-03-16T02:09:01.524Z,80.37
2023-03-16T02:11:28.344Z,80.37
2023-03-16T02:13:59.535Z,80.96
2023-03-16T02:16:26.512Z,80.87
2023-03-16T02:18:53.345Z,80.78
2023-03-16T02:21:33.160Z,81.20
2023-03-16T02:24:03.130Z,80.83
2023-03-16T02:26:36.994Z,80.78
2023-03-16T02:29:18.185Z,80.87
2023-03-16T02:31:44.743Z,80.87
2023-03-16T02:34:13.149Z,80.75
2023-03-16T02:36:41.688Z,81.38
2023-03-16T02:39:08.137Z,81.57
2023-03-16T02:41:34.724Z,81.41
2023-03-16T02:44:14.585Z,81.69
2023-03-16T02:46:43.311Z,81.17
2023-03-16T02:49:24.967Z,81.44
2023-03-16T02:51:51.991Z,81.19
2023-03-16T02:54:18.954Z,81.29
2023-03-16T02:56:45.729Z,81.52
2023-03-16T02:59:12.177Z,81.33
2023-03-16T03:01:38.710Z,81.76
2023-03-16T03:04:06.179Z,81.97
2023-03-16T03:06:33.159Z,82.05
2023-03-16T03:09:00.438Z,82.26
2023-03-16T03:11:26.845Z,82.25
2023-03-16T03:13:54.516Z,82.85
2023-03-16T03:16:21.276Z,83.40
2023-03-16T03:18:48.419Z,83.16
2023-03-16T03:21:15.037Z,83.60
2023-03-16T03:23:41.375Z,84.12
2023-03-16T03:26:08.044Z,84.09
2023-03-16T03:28:34.440Z,83.95
2023-03-16T03:31:01.692Z,84.63
2023-03-16T03:33:28.377Z,84.27
2023-03-16T03:35:59.463Z,84.81
2023-03-16T03:38:26.295Z,84.31
2023-03-16T03:40:53.971Z,84.39
2023-03-16T03:43:21.080Z,84.75
2023-03-16T03:45:47.762Z,84.78
2023-03-16T03:48:14.149Z,84.57
2023-03-16T03:50:40.805Z,84.75
2023-03-16T03:53:07.753Z,84.99
2023-03-16T03:55:34.129Z,85.19
2023-03-16T03:58:00.873Z,85.19
2023-03-16T04:00:27.413Z,85.06
2023-03-16T04:02:53.994Z,85.13
2023-03-16T04:05:20.449Z,84.99
2023-03-16T04:07:46.813Z,84.72
2023-03-16T04:10:13.204Z,85.10
2023-03-16T04:12:39.655Z,85.16
2023-03-16T04:15:06.347Z,85.24
2023-03-16T04:17:34.338Z,85.05
2023-03-16T04:20:02.087Z,85.43
2023-03-16T04:22:31.043Z,85.68
2023-03-16T04:24:57.398Z,85.60
2023-03-16T04:27:23.894Z,85.44
2023-03-16T04:29:50.255Z,85.66
2023-03-16T04:32:16.627Z,85.32
2023-03-16T04:34:43.764Z,85.36
2023-03-16T04:37:10.238Z,85.41
2023-03-16T04:39:36.650Z,86.18
2023-03-16T04:42:03.057Z,85.90
2023-03-16T04:44:29.475Z,85.59
2023-03-16T04:46:55.839Z,85.68
2023-03-16T04:49:22.181Z,85.88
2023-03-16T04:51:48.552Z,86.34
2023-03-16T04:54:15.384Z,85.74
2023-03-16T04:56:41.833Z,85.85
2023-03-16T04:59:08.278Z,86.02
2023-03-16T05:01:34.674Z,86.42
2023-03-16T05:04:02.390Z,86.35
2023-03-16T05:06:29.352Z,85.99
2023-03-16T05:08:55.715Z,86.28
2023-03-16T05:11:22.055Z,86.50
2023-03-16T05:13:48.404Z,86.09
2023-03-16T05:16:14.827Z,86.92
2023-03-16T05:18:41.611Z,87.31
2023-03-16T05:21:08.122Z,86.56
2023-03-16T05:23:34.538Z,86.47
2023-03-16T05:26:01.004Z,86.54
2023-03-16T05:28:27.958Z,86.31
2023-03-16T05:30:54.782Z,85.92
2023-03-16T05:33:21.576Z,85.96
2023-03-16T05:35:48.170Z,85.72
2023-03-16T05:38:15.782Z,86.11
2023-03-16T05:40:42.320Z,86.28
2023-03-16T05:43:08.812Z,85.82
2023-03-16T05:45:35.201Z,85.98
2023-03-16T05:48:01.574Z,86.00
2023-03-16T05:50:28.575Z,85.84
2023-03-16T05:52:55.031Z,86.11
2023-03-16T05:55:21.403Z,86.08
2023-03-16T05:57:47.830Z,86.07
2023-03-16T06:00:16.205Z,85.48
2023-03-16T06:02:43.554Z,85.51
2023-03-16T06:05:10.192Z,85.22
2023-03-16T06:07:36.720Z,85.66
2023-03-16T06:10:04.744Z,85.38
2023-03-16T06:12:31.140Z,84.95
2023-03-16T06:14:57.500Z,84.69
2023-03-16T06:17:23.893Z,84.99
2023-03-16T06:19:50.241Z,85.32
2023-03-16T06:22:18.049Z,84.92
2023-03-16T06:24:44.777Z,85.11
2023-03-16T06:27:11.494Z,84.80
2023-03-16T06:29:37.961Z,85.10
2023-03-16T06:32:04.712Z,84.58
2023-03-16T06:34:32.156Z,84.26
2023-03-16T06:36:58.518Z,84.57
2023-03-16T06:39:26.308Z,84.57
2023-03-16T06:41:53.349Z,83.83
2023-03-16T06:44:19.696Z,83.63
2023-03-16T06:46:46.043Z,83.70
2023-03-16T06:49:12.403Z,83.32
2023-03-16T06:51:38.767Z,84.01
2023-03-16T06:54:05.117Z,83.37
2023-03-16T06:56:31.862Z,83.24
2023-03-16T06:58:58.280Z,83.10
2023-03-16T07:01:24.957Z,82.55
2023-03-16T07:03:51.398Z,82.36
2023-03-16T07:06:18.184Z,82.33
2023-03-16T07:08:44.903Z,82.20
2023-03-16T07:11:11.326Z,82.16
2023-03-16T07:13:38.146Z,82.10
2023-03-16T07:16:04.957Z,81.63
2023-03-16T07:18:31.696Z,81.17
2023-03-16T07:20:58.302Z,81.23
2023-03-16T07:23:25.092Z,81.18
2023-03-16T07:25:52.633Z,81.12
2023-03-16T07:28:20.041Z,81.15
2023-03-16T07:31:02.631Z,80.64
2023-03-16T07:33:32.177Z,80.30
2023-03-16T07:35:59.031Z,79.58
2023-03-16T07:38:25.442Z,78.98
2023-03-16T07:40:52.262Z,79.11
2023-03-16T07:43:18.617Z,78.90
2023-03-16T07:45:49.987Z,78.82
2023-03-16T07:48:17.023Z,78.56
2023-03-16T07:50:43.676Z,78.39
2023-03-16T07:53:10.294Z,77.75
2023-03-16T07:55:38.297Z,78.07
2023-03-16T07:58:06.087Z,78.96
2023-03-16T08:00:33.626Z,78.34
2023-03-16T08:03:00.534Z,78.57
2023-03-16T08:05:27.895Z,77.99
2023-03-16T08:07:56.040Z,77.49
2023-03-16T08:10:23.165Z,77.29
2023-03-16T08:12:49.655Z,77.03
2023-03-16T08:15:16.429Z,77.00
2023-03-16T08:17:42.855Z,76.96
2023-03-16T08:20:12.862Z,76.88
2023-03-16T08:22:39.410Z,76.62
2023-03-16T08:25:10.304Z,76.13
2023-03-16T08:27:38.119Z,75.78
2023-03-16T08:30:07.416Z,75.50
2023-03-16T08:32:34.037Z,75.80
2023-03-16T08:35:00.547Z,75.23
2023-03-16T08:37:27.445Z,74.95
2023-03-16T08:39:54.251Z,74.41
2023-03-16T08:42:21.004Z,74.46
2023-03-16T08:44:47.787Z,74.22
2023-03-16T08:47:14.949Z,74.35
2023-03-16T08:49:41.403Z,74.35
2023-03-16T08:52:10.182Z,74.06
2023-03-16T08:54:37.130Z,73.45
2023-03-16T08:57:03.541Z,73.91
2023-03-16T08:59:30.777Z,74.22
2023-03-16T09:01:57.687Z,73.33
2023-03-16T09:04:24.320Z,72.89
2023-03-16T09:07:09.868Z,72.68
2023-03-16T09:09:37.073Z,71.96
2023-03-16T09:12:04.419Z,71.67
2023-03-16T09:14:30.967Z,71.42
2023-03-16T09:16:57.397Z,70.73
2023-03-16T09:19:24.979Z,70.92
2023-03-16T09:21:51.377Z,70.02
2023-03-16T09:24:17.806Z,70.06
2023-03-16T09:26:44.230Z,69.31
2023-03-16T09:29:10.610Z,69.31
2023-03-16T09:31:37.493Z,69.61
2023-03-16T09:34:04.824Z,67.96
2023-03-16T09:36:31.175Z,67.41
2023-03-16T09:38:57.572Z,67.71
2023-03-16T09:41:42.721Z,68.16
2023-03-16T09:44:31.404Z,67.93
2023-03-16T09:47:01.442Z,67.18
2023-03-16T09:49:36.162Z,67.80
2023-03-16T09:52:30.161Z,67.69
2023-03-16T09:55:04.213Z,67.25
2023-03-16T09:57:36.876Z,66.36
2023-03-16T10:00:19.970Z,66.07
2023-03-16T10:03:05.092Z,65.86
2023-03-16T10:05:32.958Z,65.62
2023-03-16T10:08:22.213Z,66.00
2023-03-16T10:11:25.926Z,65.16
2023-03-16T10:14:11.145Z,64.91
2023-03-16T10:16:43.563Z,64.67
2023-03-16T10:19:42.610Z,64.49
2023-03-16T10:22:26.406Z,63.29
2023-03-16T10:25:14.938Z,62.79
2023-03-16T10:27:44.769Z,62.73
2023-03-16T10:30:28.623Z,62.27
2023-03-16T10:32:57.536Z,62.70
2023-03-16T10:35:46.971Z,60.84
2023-03-16T10:38:30.589Z,60.12
2023-03-16T10:41:00.707Z,60.83
2023-03-16T10:43:29.091Z,61.69
2023-03-16T10:46:00.389Z,60.60
2023-03-16T10:48:28.322Z,59.38
2023-03-16T10:50:57.482Z,59.66
2023-03-16T10:53:28.811Z,59.39
2023-03-16T10:56:11.986Z,59.04
2023-03-16T10:58:42.477Z,59.57
2023-03-16T11:01:18.741Z,59.31
2023-03-16T11:03:51.242Z,58.42
2023-03-16T11:06:22.812Z,58.20
2023-03-16T11:08:49.230Z,58.03
2023-03-16T11:11:29.385Z,57.99
2023-03-16T11:14:03.235Z,57.63
2023-03-16T11:16:39.202Z,57.10
2023-03-16T11:19:27.150Z,56.39
2023-03-16T11:22:01.397Z,56.91
2023-03-16T11:24:42.197Z,55.90
2023-03-16T11:27:21.341Z,55.62
2023-03-16T11:30:25.316Z,56.86
2023-03-16T11:32:54.136Z,56.13
2023-03-16T11:35:29.196Z,55.58
2023-03-16T11:38:17.577Z,54.99
2023-03-16T11:40:48.973Z,55.05
2023-03-16T11:43:51.692Z,53.60
2023-03-16T11:46:23.907Z,52.99
2023-03-16T11:49:07.004Z,52.67
2023-03-16T11:51:47.713Z,53.37
2023-03-16T11:54:17.392Z,52.64
2023-03-16T11:56:47.737Z,51.30
2023-03-16T11:59:38.146Z,52.14
2023-03-16T12:02:32.383Z,52.60
2023-03-16T12:05:14.498Z,52.65
2023-03-16T12:07:49.749Z,52.58
2023-03-16T12:10:31.089Z,52.86
2023-03-16T12:13:30.612Z,52.25
2023-03-16T12:16:05.675Z,53.10
2023-03-16T12:18:49.562Z,50.86
2023-03-16T12:21:40.829Z,50.50
2023-03-16T12:24:15.961Z,51.01
2023-03-16T12:26:43.294Z,51.89
2023-03-16T12:29:24.508Z,52.13
2023-03-16T12:31:58.024Z,52.33
2023-03-16T12:34:34.458Z,52.15
2023-03-16T12:37:14.167Z,52.17
2023-03-16T12:40:15.643Z,51.43
2023-03-16T12:42:50.646Z,51.85
2023-03-16T12:45:39.202Z,50.79
2023-03-16T12:48:19.714Z,51.59
2023-03-16T12:50:55.747Z,52.27
2023-03-16T12:53:40.493Z,50.29
2023-03-16T12:56:09.989Z,48.56
2023-03-16T12:58:40.206Z,48.50
2023-03-16T13:01:10.164Z,48.35
2023-03-16T13:03:37.186Z,48.82
2023-03-16T13:06:04.066Z,48.24
2023-03-16T13:08:42.593Z,48.09
2023-03-16T13:11:12.110Z,48.20
2023-03-16T13:14:00.464Z,46.51
2023-03-16T13:16:33.310Z,46.01
2023-03-16T13:18:59.794Z,45.99
2023-03-16T13:21:26.102Z,44.87
2023-03-16T13:23:58.507Z,45.48
2023-03-16T13:26:47.424Z,44.50
2023-03-16T13:29:27.350Z,45.22
2023-03-16T13:31:56.663Z,44.30
2023-03-16T13:34:29.591Z,44.67
2023-03-16T13:36:57.694Z,44.67
2023-03-16T13:39:30.187Z,45.20
2023-03-16T13:42:08.373Z,45.61
2023-03-16T13:44:39.259Z,45.29
2023-03-16T13:47:06.001Z,45.83
2023-03-16T13:49:32.327Z,46.28
2023-03-16T13:51:58.922Z,45.22
2023-03-16T13:54:30.373Z,45.42
2023-03-16T13:56:59.609Z,44.00
2023-03-16T13:59:26.342Z,45.76
2023-03-16T14:01:58.452Z,44.70
2023-03-16T14:04:29.149Z,43.63
2023-03-16T14:07:01.848Z,42.71
2023-03-16T14:09:31.857Z,42.54
2023-03-16T14:11:58.261Z,42.04
2023-03-16T14:14:50.107Z,43.46
2023-03-16T14:17:19.737Z,44.14
2023-03-16T14:19:56.630Z,44.39
2023-03-16T14:22:29.275Z,44.04
2023-03-16T14:25:00.575Z,43.00
2023-03-16T14:28:00.878Z,42.76
2023-03-16T14:30:30.197Z,43.21
2023-03-16T14:33:24.803Z,43.51
2023-03-16T14:35:56.025Z,43.94
2023-03-16T14:38:35.171Z,42.77
2023-03-16T14:41:05.012Z,41.45
2023-03-16T14:43:35.669Z,42.13
2023-03-16T14:46:07.506Z,42.01
2023-03-16T14:48:35.588Z,41.95
2023-03-16T14:51:03.295Z,42.81
2023-03-16T14:53:30.750Z,42.81
2023-03-16T14:55:58.628Z,43.53
2023-03-16T14:58:25.698Z,42.69
2023-03-16T15:00:53.790Z,42.53
2023-03-16T15:03:23.692Z,42.39
2023-03-16T15:05:51.596Z,43.94
2023-03-16T15:08:22.264Z,43.67
2023-03-16T15:10:49.514Z,43.71
2023-03-16T15:13:34.777Z,43.96
2023-03-16T15:16:04.247Z,42.75
2023-03-16T15:18:31.276Z,43.10
2023-03-16T15:20:57.668Z,44.10
2023-03-16T15:23:24.013Z,43.79
2023-03-16T15:25:52.620Z,43.04
2023-03-16T15:28:21.418Z,43.77
2023-03-16T15:30:52.540Z,42.62
2023-03-16T15:33:18.895Z,43.22
2023-03-16T15:35:47.580Z,42.85
2023-03-16T15:38:16.715Z,44.29
2023-03-16T15:40:44.058Z,44.29
2023-03-16T15:43:12.506Z,44.30
2023-03-16T15:45:38.892Z,43.35
2023-03-16T15:48:05.690Z,44.40
2023-03-16T15:50:32.926Z,44.37
2023-03-16T15:53:30.921Z,44.69
2023-03-16T15:56:03.190Z,43.72
2023-03-16T15:58:31.501Z,44.33
2023-03-16T16:01:00.025Z,43.92
2023-03-16T16:03:27.631Z,44.40
2023-03-16T16:05:54.762Z,44.73
2023-03-16T16:08:21.457Z,44.68
2023-03-16T16:10:50.177Z,44.51
2023-03-16T16:13:23.359Z,44.20
2023-03-16T16:15:51.848Z,45.29
2023-03-16T16:18:35.030Z,45.52
2023-03-16T16:21:03.478Z,46.84
2023-03-16T16:23:32.366Z,47.11
2023-03-16T16:26:02.712Z,48.17
2023-03-16T16:28:31.707Z,48.80
2023-03-16T16:30:59.822Z,49.42
2023-03-16T16:33:32.088Z,50.46
2023-03-16T16:36:01.564Z,49.97
2023-03-16T16:38:28.597Z,50.66
2023-03-16T16:40:58.462Z,50.86
2023-03-16T16:43:33.958Z,51.47
2023-03-16T16:46:02.034Z,51.72
2023-03-16T16:48:37.308Z,51.70
2023-03-16T16:51:07.162Z,52.44
2023-03-16T16:53:33.620Z,53.02
2023-03-16T16:56:00.376Z,52.76
2023-03-16T16:58:27.117Z,53.55
2023-03-16T17:00:56.504Z,53.53
2023-03-16T17:03:27.004Z,53.32
2023-03-16T17:05:55.209Z,53.79
2023-03-16T17:08:23.131Z,53.72
2023-03-16T17:10:49.708Z,53.92
2023-03-16T17:13:29.785Z,53.84
2023-03-16T17:15:56.186Z,54.00
2023-03-16T17:18:22.529Z,53.37
2023-03-16T17:20:50.563Z,53.80
2023-03-16T17:23:33.176Z,54.29
2023-03-16T17:26:06.543Z,54.74
2023-03-16T17:28:38.664Z,54.73
2023-03-16T17:31:05.580Z,54.49
2023-03-16T17:33:31.975Z,54.46
2023-03-16T17:35:58.375Z,54.64
2023-03-16T17:38:25.190Z,55.32
2023-03-16T17:40:52.890Z,55.46
2023-03-16T17:43:22.109Z,55.45
2023-03-16T17:45:51.643Z,55.47
2023-03-16T17:48:20.890Z,55.61
2023-03-16T17:50:48.348Z,55.67
2023-03-16T17:53:16.526Z,55.93
2023-03-16T17:55:44.627Z,56.15
2023-03-16T17:58:30.280Z,56.12
2023-03-16T18:00:57.293Z,56.50
2023-03-16T18:03:26.923Z,56.43
2023-03-16T18:05:54.452Z,56.88
2023-03-16T18:08:29.466Z,56.92
2023-03-16T18:11:02.249Z,57.19
2023-03-16T18:13:34.630Z,57.29
2023-03-16T18:16:02.873Z,57.81
2023-03-16T18:18:32.705Z,57.73
2023-03-16T18:21:00.477Z,57.33
2023-03-16T18:23:30.298Z,57.63
2023-03-16T18:26:03.248Z,57.53
2023-03-16T18:28:30.774Z,57.49
2023-03-16T18:30:58.230Z,57.52
2023-03-16T18:33:32.544Z,57.93
2023-03-16T18:36:13.345Z,57.85
2023-03-16T18:38:44.452Z,58.36
2023-03-16T18:41:22.763Z,58.81
2023-03-16T18:43:50.965Z,56.58
2023-03-16T18:46:27.346Z,56.29
2023-03-16T18:48:59.772Z,57.07
2023-03-16T18:51:26.630Z,56.42
2023-03-16T18:53:53.439Z,57.40
2023-03-16T18:56:26.875Z,56.93
2023-03-16T18:58:54.911Z,57.47
2023-03-16T19:01:32.337Z,57.08
2023-03-16T19:04:00.806Z,57.39
2023-03-16T19:06:32.953Z,57.15
2023-03-16T19:09:03.870Z,56.92
2023-03-16T19:11:30.385Z,57.29
2023-03-16T19:13:56.932Z,57.11
2023-03-16T19:16:23.378Z,57.33
2023-03-16T19:18:50.214Z,57.16
2023-03-16T19:21:19.515Z,57.14
2023-03-16T19:23:56.950Z,57.27
2023-03-16T19:26:24.051Z,57.71
2023-03-16T19:28:50.986Z,58.30
2023-03-16T19:31:22.239Z,58.03
2023-03-16T19:33:49.173Z,58.38
2023-03-16T19:36:19.590Z,58.06
2023-03-16T19:38:50.225Z,58.57
2023-03-16T19:41:26.977Z,58.30
2023-03-16T19:43:55.542Z,58.55
2023-03-16T19:46:22.311Z,59.13
2023-03-16T19:48:48.817Z,58.66
2023-03-16T19:51:17.466Z,58.99
2023-03-16T19:53:44.483Z,59.29
2023-03-16T19:56:19.952Z,59.14
2023-03-16T19:58:49.467Z,59.57
2023-03-16T20:01:19.046Z,59.73
2023-03-16T20:03:47.632Z,59.64
2023-03-16T20:06:20.473Z,59.99
2023-03-16T20:08:48.213Z,60.18
2023-03-16T20:11:24.504Z,60.27
2023-03-16T20:13:51.713Z,59.91
2023-03-16T20:16:24.149Z,60.37
2023-03-16T20:18:54.420Z,60.13
2023-03-16T20:21:21.111Z,60.40
2023-03-16T20:23:47.614Z,59.53
2023-03-16T20:26:27.365Z,60.35
2023-03-16T20:28:53.816Z,60.65
2023-03-16T20:31:26.563Z,60.46
2023-03-16T20:33:53.774Z,60.52
2023-03-16T20:36:22.140Z,60.17
2023-03-16T20:38:48.916Z,60.15
2023-03-16T20:41:32.712Z,60.32
2023-03-16T20:44:01.244Z,60.46
2023-03-16T20:46:32.718Z,60.62
2023-03-16T20:49:00.654Z,60.41
2023-03-16T20:51:28.640Z,60.11
2023-03-16T20:53:55.424Z,60.22
2023-03-16T20:56:24.118Z,60.27
2023-03-16T20:58:54.525Z,60.40
2023-03-16T21:01:21.650Z,60.42
2023-03-16T21:03:51.953Z,60.59
2023-03-16T21:06:23.467Z,60.60
2023-03-16T21:08:52.045Z,60.27
2023-03-16T21:11:30.345Z,59.70
2023-03-16T21:13:56.730Z,59.87
2023-03-16T21:16:23.400Z,60.43
2023-03-16T21:18:49.806Z,60.62
2023-03-16T21:21:18.191Z,60.46
2023-03-16T21:23:45.086Z,60.15
2023-03-16T21:26:16.540Z,59.94
2023-03-16T21:28:43.843Z,59.82
2023-03-16T21:31:19.571Z,59.76
2023-03-16T21:33:46.078Z,59.60
2023-03-16T21:36:16.021Z,59.75
2023-03-16T21:38:42.885Z,60.34
2023-03-16T21:41:09.384Z,60.17
2023-03-16T21:43:36.202Z,59.90
2023-03-16T21:46:03.709Z,59.91
2023-03-16T21:48:36.611Z,59.00
2023-03-16T21:51:03.514Z,59.12
2023-03-16T21:53:34.295Z,59.85
2023-03-16T21:56:01.766Z,59.67
2023-03-16T21:58:28.170Z,59.72
2023-03-16T22:00:55.456Z,59.75
2023-03-16T22:03:49.792Z,59.67
2023-03-16T22:06:17.132Z,59.92
2023-03-16T22:08:43.930Z,59.87
2023-03-16T22:11:17.007Z,59.72
2023-03-16T22:13:43.346Z,59.77
2023-03-16T22:16:16.132Z,59.42
2023-03-16T22:18:45.221Z,59.57
2023-03-16T22:21:38.025Z,59.77
2023-03-16T22:24:07.296Z,59.91
2023-03-16T22:26:33.889Z,59.91
2023-03-16T22:29:01.797Z,59.98
2023-03-16T22:31:38.637Z,59.46
2023-03-16T22:34:06.220Z,59.39
2023-03-16T22:36:33.799Z,59.18
2023-03-16T22:39:05.373Z,59.73
2023-03-16T22:41:31.944Z,59.69
2023-03-16T22:43:59.581Z,59.14
2023-03-16T22:46:28.425Z,59.38
2023-03-16T22:48:56.145Z,59.72
2023-03-16T22:51:32.893Z,59.14
2023-03-16T22:54:02.471Z,59.38
2023-03-16T22:56:30.647Z,59.18
2023-03-16T22:59:04.168Z,59.12
2023-03-16T23:01:38.307Z,58.98
2023-03-16T23:04:13.577Z,59.32
2023-03-16T23:06:39.969Z,58.76
2023-03-16T23:09:06.333Z,59.05
2023-03-16T23:11:34.658Z,58.79
2023-03-16T23:14:01.468Z,58.85
2023-03-16T23:16:35.800Z,58.69
2023-03-16T23:19:04.458Z,58.25
2023-03-16T23:21:33.953Z,58.42
2023-03-16T23:24:04.387Z,58.14
2023-03-16T23:26:31.714Z,58.20
2023-03-16T23:28:58.457Z,58.50
2023-03-16T23:31:27.105Z,58.40
2023-03-16T23:33:54.042Z,58.06
2023-03-16T23:36:24.412Z,58.18
2023-03-16T23:38:51.267Z,57.10
2023-03-16T23:41:22.009Z,57.92
2023-03-16T23:43:49.124Z,57.13
2023-03-16T23:46:20.013Z,57.00
2023-03-16T23:48:48.765Z,57.16
2023-03-16T23:51:36.808Z,57.43
2023-03-16T23:54:17.715Z,57.36
2023-03-16T23:56:44.135Z,57.26
2023-03-16T23:59:10.613Z,57.12
